Weather at Bojszowy Airstrip

Public forecast

Using degrees Celsius for public forecast. Weather courtesy of forecast.io.

Closest aviation weather report (METAR) to Bojszowy Airstrip

Closest report is Katowice Wojciech Korfanty International Airport, 25.6 nm (47.4 km) N.

2024/06/19 03:30 (retrieved 22 minutes ago)

EPKT 190330Z 13005KT CAVOK 19/15 Q1013

Closest aviation forecast (TAF) to Bojszowy Airstrip

Forecast is more than 6 hours old.

Closest forecast is Sliač Airport, 84.8 nm (157.0 km) S.

2024/06/18 18:36 (retrieved 9 hours ago)

TAF LZSL 181630Z 1818/1906 VRB03KT CAVOK